Sunday, January 21, 2018, 3:39 PM EST
Back to Local

KACK, Nantucket Memorial Airport

Location: Nantucket, MA, United States Lat: 41.25
Local Time: 3:39 PM EST (20:39 GMT) Lon: -70.067
Time Zone: US/Eastern Elev: 49 ft

Show me the last for .
Show Decoded

2018-01-21 14:53 METAR KACK 211953Z 35006KT 10SM CLR 08/M01 A3013 RMK AO2 SLP202 T00831006 =
2018-01-21 13:53 METAR KACK 211853Z 36008KT 10SM CLR 09/M01 A3011 RMK AO2 SLP196 T00891006 =
2018-01-21 12:53 METAR KACK 211753Z 32004KT 10SM CLR 09/00 A3011 RMK AO2 SLP196 T00890000 10089
                 20028 58013 =
2018-01-21 11:53 METAR KACK 211653Z 32009KT 10SM CLR 08/M01 A3012 RMK AO2 SLP200 T00831006 =
2018-01-21 10:53 METAR KACK 211553Z 31008KT 10SM CLR 07/M01 A3014 RMK AO2 SLP207 T00671006 =
2018-01-21 09:53 METAR KACK 211453Z 30009KT 10SM CLR 07/M01 A3015 RMK AO2 SLP209 T00671006 51025
                 =
2018-01-21 08:53 METAR KACK 211353Z 30005KT 10SM CLR 05/M01 A3012 RMK AO2 SLP199 T00501006 =
2018-01-21 07:53 METAR KACK 211253Z 30009KT 10SM CLR 03/M01 A3010 RMK AO2 SLP194 T00331011 =
2018-01-21 06:53 METAR KACK 211153Z 32007KT 10SM CLR 03/M01 A3007 RMK AO2 SLP184 T00281011 10039
                 20017 51014 =
2018-01-21 05:53 METAR KACK 211053Z 30008KT 10SM CLR 03/M01 A3007 RMK AO2 SLP183 T00331006 =
2018-01-21 04:53 METAR KACK 210953Z AUTO 30008KT 10SM CLR 04/00 A3005 RMK AO2 SLP174 T00390000
                 TSNO =
2018-01-21 03:53 METAR KACK 210853Z AUTO 28010KT 10SM CLR 03/01 A3003 RMK AO2 SLP170 T00330006
                 53014 TSNO =
2018-01-21 02:53 METAR KACK 210753Z AUTO 27010KT 10SM CLR 03/01 A3002 RMK AO2 SLP165 T00280006
                 TSNO =
2018-01-21 01:53 METAR KACK 210653Z AUTO 27008KT 10SM CLR 03/M01 A3000 RMK AO2 SLP160 T00281006
                 TSNO =
2018-01-21 00:53 METAR KACK 210553Z AUTO 27008KT 10SM CLR 03/00 A2999 RMK AO2 SLP156 T00280000
                 10039 20028 53010 TSNO =
2018-01-20 23:53 METAR KACK 210453Z AUTO 27010KT 10SM CLR 03/01 A2997 RMK AO2 SLP149 T00330006
                 400831022 TSNO =
2018-01-20 22:53 METAR KACK 210353Z AUTO 27012KT 10SM CLR 03/01 A2996 RMK AO2 SLP144 T00330006
                 TSNO =
2018-01-20 21:53 METAR KACK 210253Z AUTO 27012KT 10SM CLR 03/01 A2996 RMK AO2 SLP145 T00330006
                 51023 TSNO =
2018-01-20 20:53 METAR KACK 210153Z AUTO 26008KT 10SM CLR 03/01 A2994 RMK AO2 SLP139 T00330006
                 TSNO =
2018-01-20 19:53 METAR KACK 210053Z 26011KT 10SM CLR 03/02 A2992 RMK AO2 SLP131 T00330017 =
2018-01-20 18:53 METAR KACK 202353Z 26009KT 10SM CLR 04/01 A2989 RMK AO2 SLP122 T00390011 10078
                 20039 51035 =
2018-01-20 17:53 METAR KACK 202253Z 26015KT 10SM CLR 04/01 A2986 RMK AO2 SLP111 T00440006 =
2018-01-20 16:53 METAR KACK 202153Z 27015G26KT 10SM CLR 05/01 A2983 RMK AO2 PK WND 28027/2111
                 SLP101 T00500006 =
2018-01-20 15:53 METAR KACK 202053Z AUTO 26020G27KT 10SM CLR 06/01 A2979 RMK AO2 PK WND
                 26031/2019 SLP087 T00560011 53015 TSNO =

Support USWX by starting your Amazon purchase here.